Terminal Aerodrome Forecast
Issued by NWS Anchorage, AK

Home | Current Version | Previous Version | Text Only | Print | Product List | Glossary On
Versions: 1 2 3 4 5 6 7 8 9 10 11 12 13 14 15 16 17 18
000
FTAK31 PANC 221735
TAFANC
TAF
PANC 221735Z 2218/2324 VRB05KT P6SM FEW200
     FM230000 29007KT P6SM SKC
     FM230700 VRB05KT P6SM SKC
     FM232100 16012G22KT P6SM BKN200=

USA.gov is the U.S. government's official web portal to all federal, state and local government web resources and services.